Boulder City, Nevada
Current Conditions -  °F | °C
As of 4:35 PM on Wednesday 28 Jan 2015 (Local Time) from KBVU Reporting Station
Clear Clear  
Wind Chill: 61°   Ceiling: Unl
Heat Index: 61°   Visibility: 10mi
Dew Point: 46°   Wind: 5mph
Humidity: 59%   Direction: 350°N
Pressure: 30.2"   Gusts: NA
Location:  35.98°N, 114.83°W
Report Text: KBVU 290035Z AUTO 35004KT 10SM CLR 16/08 A3020 RMK AO2
Loading
Personal Weather Stations






























Interactive Weather Map New forecast layout! Learn more

10-Day Weather Forecast

Advertisements
Track Severe Weather on mobile